Woodland Hills, CA (91302)

12:21 AM PDT on October 25, 2014 (GMT -0700)
Calabasas - Park Belmonte | Change Station
CLOSE
Current Station
Personal Weather Station
Location: Calabasas, CA
Elevation: 1438 ft
Nearby Weather Stations

Elev 1438 ft 34.14 °N, 118.65 °W | Updated 22 seconds ago

Clear
Clear
68.1 °F
Feels Like 68.1 °F
N
2.0
Wind Variable Wind from North
Gusts 3.0 mph

Today
High -- | Low -- °F
--% Chance of Precip.
Yesterday
High -- | Low -- °F
Precip. -- in
7:08 AM 6:08 PM
New Moon, 2% visible
Pressure 29.99 in
Visibility 10.0 miles
Clouds Clear
Dew Point 36 °F
Humidity 31%
Rainfall 0.00 in
Snow Depth Not available.
UV 0.0 out of 12
Pollen 4.10 out of 12
Ozone Good
PM2.5 Moderate
Flu Activity Sporadic
METAR KVNY 250651Z 00000KT 10SM CLR 18/05 A3002 RMK AO2 SLP155 T01830050

More Conditions Fewer Conditions

Pressure 29.99 in
Visibility 10.0 miles
Clouds Clear
Dew Point 36 °F
Humidity 31%
Rainfall 0.00 in
Snow Depth Not available.
UV 0.0 out of 12
Pollen 4.10 out of 12
Ozone Good
PM2.5 Moderate
Flu Activity Sporadic
METAR KVNY 250651Z 00000KT 10SM CLR 18/05 A3002 RMK AO2 SLP155 T01830050

More Conditions Fewer Conditions

10-Day Weather Forecast

Almanac

Astronomy

Oct. 25, 2014 Rise Set
Actual Time 7:08 AM PDT 6:08 PM PDT
Civil Twilight 6:42 AM PDT 6:34 PM PDT
Nautical Twilight 6:13 AM PDT 7:03 PM PDT
Astronomical Twilight 5:44 AM PDT 7:32 PM PDT
Moon 8:48 AM PDT 7:39 PM PDT
Length of Visible Light 11h 51m
Length of Day
11h 00m
Tomorrow will be 1m 56s shorter.
New Moon, 2% of the Moon is Illuminated
Today
New Moon
Oct 30
First Quarter
Nov 6
Full
Nov 14
Last Quarter
Nov 22
New

Today's Extremes

State Highs State Lows

Community

WunderPhotos

Upload Photos

1,764,789 photos uploaded!

Nearby

Air Quality

  Air Quality AQ Index Pollutant
Yesterday Moderate
OZONE
Yesterday Moderate
PM2.5
Current Moderate
PM2.5
Current Good
OZONE
Saturday Good
PM10
Saturday Good
OZONE
Saturday Good
CO
Saturday Good
NO2

Snow Depth

Station Depth Elevation
Virginia Lakes Ridge 0 in 9200 ft
Leavitt Lake 1 in 9400 ft
Leavitt Meadows 1 in 7200 ft
Summit Meadow 1 in 9122 ft
Blue Lakes 0 in 8000 ft

Earthquake Activity

City Distance Mag. Time & Date
Coalinga, California 165 miles 2.5 11:01 PM PDT
2014-10-24
Brea, California 45 miles 2.9 3:35 PM PDT
2014-10-23
Brea, California 45 miles 2.8 3:34 PM PDT
2014-10-23
Corona, California 59 miles 2.5 1:09 PM PDT
2014-10-23
Minimum magnitude displayed is 2.5.

Coastal Water Temperatures

Place Temperature
Santa Monica Pier 69.1 °F
Los Angeles, CA 69.1 °F
La Jolla, CA 71.1 °F

Nearby Weather Stations